createdAt,value
2019-03-05T00:00:20.419Z,5.17
2019-03-05T00:01:20.405Z,5.25
2019-03-05T00:02:20.425Z,5.17
2019-03-05T00:03:20.383Z,5.19
2019-03-05T00:04:20.369Z,5.27
2019-03-05T00:05:20.352Z,5.28
2019-03-05T00:06:20.347Z,5.30
2019-03-05T00:07:20.359Z,5.23
2019-03-05T00:08:20.342Z,5.20
2019-03-05T00:09:20.321Z,5.31
2019-03-05T00:10:20.314Z,5.32
2019-03-05T00:11:20.300Z,5.16
2019-03-05T00:12:20.315Z,5.31
2019-03-05T00:13:20.284Z,5.19
2019-03-05T00:14:20.269Z,5.28
2019-03-05T00:15:20.294Z,5.28
2019-03-05T00:16:20.248Z,5.49
2019-03-05T00:17:20.259Z,5.43
2019-03-05T00:18:20.230Z,5.38
2019-03-05T00:19:20.212Z,5.38
2019-03-05T00:20:20.210Z,5.41
2019-03-05T00:21:20.200Z,5.45
2019-03-05T00:22:20.208Z,5.41
2019-03-05T00:23:20.167Z,5.43
2019-03-05T00:24:20.160Z,5.46
2019-03-05T00:25:20.147Z,5.53
2019-03-05T00:26:20.146Z,5.41
2019-03-05T00:27:20.155Z,5.49
2019-03-05T00:28:20.115Z,5.52
2019-03-05T00:29:20.106Z,5.53
2019-03-05T00:30:20.097Z,5.43
2019-03-05T00:31:20.083Z,5.50
2019-03-05T00:32:20.095Z,5.48
2019-03-05T00:33:20.065Z,5.49
2019-03-05T00:34:20.059Z,5.43
2019-03-05T00:35:20.044Z,5.55
2019-03-05T00:36:20.033Z,5.53
2019-03-05T00:37:20.055Z,5.57
2019-03-05T00:38:20.012Z,5.56
2019-03-05T00:39:20.000Z,5.48
2019-03-05T00:40:19.993Z,5.52
2019-03-05T00:41:19.982Z,5.67
2019-03-05T00:42:19.993Z,5.75
2019-03-05T00:43:19.960Z,5.81
2019-03-05T00:44:19.945Z,5.64
2019-03-05T00:45:19.939Z,5.68
2019-03-05T00:46:19.924Z,5.60
2019-03-05T00:47:19.940Z,5.60
2019-03-05T00:48:19.909Z,5.60
2019-03-05T00:49:19.896Z,5.57
2019-03-05T00:50:19.885Z,5.64
2019-03-05T00:51:25.079Z,5.56
2019-03-05T00:52:20.919Z,5.70
2019-03-05T00:53:19.841Z,5.74
2019-03-05T00:54:19.832Z,5.75
2019-03-05T00:55:19.819Z,5.74
2019-03-05T00:56:19.808Z,5.71
2019-03-05T00:57:19.832Z,5.67
2019-03-05T00:58:19.789Z,5.67
2019-03-05T00:59:19.788Z,5.66
2019-03-05T01:00:19.774Z,5.60
2019-03-05T01:01:19.768Z,5.60
2019-03-05T01:02:19.763Z,5.60
2019-03-05T01:03:19.772Z,5.63
2019-03-05T01:04:19.737Z,5.59
2019-03-05T01:05:19.729Z,5.57
2019-03-05T01:06:19.715Z,5.50
2019-03-05T01:07:19.705Z,5.60
2019-03-05T01:08:19.900Z,5.60
2019-03-05T01:09:19.681Z,5.38
2019-03-05T01:10:19.673Z,5.63
2019-03-05T01:11:19.660Z,5.52
2019-03-05T01:12:19.657Z,5.46
2019-03-05T01:13:19.664Z,5.43
2019-03-05T01:14:19.632Z,5.52
2019-03-05T01:15:19.621Z,5.48
2019-03-05T01:16:19.609Z,5.50
2019-03-05T01:17:19.597Z,5.57
2019-03-05T01:18:19.612Z,5.56
2019-03-05T01:19:19.577Z,5.57
2019-03-05T01:20:19.566Z,5.57
2019-03-05T01:21:19.554Z,5.74
2019-03-05T01:22:19.546Z,5.70
2019-03-05T01:23:19.559Z,5.73
2019-03-05T01:24:19.519Z,5.57
2019-03-05T01:25:19.516Z,5.63
2019-03-05T01:26:19.507Z,5.67
2019-03-05T01:27:19.498Z,5.64
2019-03-05T01:28:19.508Z,5.68
2019-03-05T01:29:19.468Z,5.74
2019-03-05T01:30:19.459Z,5.70
2019-03-05T01:31:19.449Z,5.75
2019-03-05T01:32:19.441Z,5.82
2019-03-05T01:33:19.455Z,5.75
2019-03-05T01:34:19.416Z,5.77
2019-03-05T01:35:19.407Z,5.78
2019-03-05T01:36:19.400Z,5.81
2019-03-05T01:37:19.383Z,5.77
2019-03-05T01:38:19.407Z,5.70
2019-03-05T01:39:19.375Z,5.75
2019-03-05T01:40:19.352Z,5.82
2019-03-05T01:41:19.347Z,5.75
2019-03-05T01:42:19.338Z,5.70
2019-03-05T01:43:19.347Z,5.71
2019-03-05T01:44:19.311Z,5.74
2019-03-05T01:45:19.312Z,5.77
2019-03-05T01:46:19.288Z,5.75
2019-03-05T01:47:19.283Z,5.66
2019-03-05T01:48:19.296Z,5.67
2019-03-05T01:49:19.258Z,5.77
2019-03-05T01:50:19.251Z,5.77
2019-03-05T01:51:19.247Z,5.74
2019-03-05T01:52:19.230Z,5.74
2019-03-05T01:53:19.239Z,5.71
2019-03-05T01:54:19.208Z,5.64
2019-03-05T01:55:19.200Z,5.74
2019-03-05T01:56:19.188Z,5.75
2019-03-05T01:57:19.173Z,5.73
2019-03-05T01:58:19.189Z,5.74
2019-03-05T01:59:19.162Z,5.75
2019-03-05T02:00:19.148Z,5.73
2019-03-05T02:01:19.133Z,5.74
2019-03-05T02:02:19.125Z,5.75
2019-03-05T02:03:19.136Z,5.77
2019-03-05T02:04:19.101Z,5.68
2019-03-05T02:05:19.082Z,5.56
2019-03-05T02:06:19.080Z,5.53
2019-03-05T02:07:19.069Z,5.52
2019-03-05T02:08:19.081Z,5.55
2019-03-05T02:09:19.047Z,5.70
2019-03-05T02:10:19.035Z,5.68
2019-03-05T02:11:19.025Z,5.71
2019-03-05T02:12:19.018Z,5.74
2019-03-05T02:13:19.034Z,5.59
2019-03-05T02:14:18.999Z,5.63
2019-03-05T02:15:18.989Z,5.55
2019-03-05T02:16:18.972Z,5.48
2019-03-05T02:17:18.964Z,5.45
2019-03-05T02:18:18.976Z,5.59
2019-03-05T02:19:18.946Z,5.60
2019-03-05T02:20:18.931Z,5.52
2019-03-05T02:21:18.921Z,5.48
2019-03-05T02:22:18.908Z,5.48
2019-03-05T02:23:18.923Z,5.45
2019-03-05T02:24:18.896Z,5.49
2019-03-05T02:25:18.875Z,5.49
2019-03-05T02:26:18.869Z,5.49
2019-03-05T02:27:18.868Z,5.55
2019-03-05T02:28:18.874Z,5.50
2019-03-05T02:29:18.838Z,5.49
2019-03-05T02:30:18.830Z,5.40
2019-03-05T02:31:18.818Z,5.41
2019-03-05T02:32:18.804Z,5.37
2019-03-05T02:33:18.826Z,5.40
2019-03-05T02:34:18.783Z,5.30
2019-03-05T02:35:18.776Z,5.34
2019-03-05T02:36:18.768Z,5.49
2019-03-05T02:37:18.752Z,5.52
2019-03-05T02:38:18.778Z,5.46
2019-03-05T02:39:18.738Z,5.46
2019-03-05T02:40:18.724Z,5.53
2019-03-05T02:41:18.714Z,5.50
2019-03-05T02:42:18.712Z,5.63
2019-03-05T02:43:18.713Z,5.59
2019-03-05T02:44:18.684Z,5.48
2019-03-05T02:45:18.665Z,5.49
2019-03-05T02:46:18.656Z,5.45
2019-03-05T02:47:18.649Z,5.35
2019-03-05T02:48:18.661Z,5.55
2019-03-05T02:49:18.628Z,5.43
2019-03-05T02:50:18.615Z,5.48
2019-03-05T02:51:18.600Z,5.46
2019-03-05T02:52:18.593Z,5.60
2019-03-05T02:53:18.586Z,5.43
2019-03-05T02:54:18.599Z,5.40
2019-03-05T02:55:18.562Z,5.55
2019-03-05T02:56:18.561Z,5.59
2019-03-05T02:57:18.537Z,5.75
2019-03-05T02:58:18.549Z,5.71
2019-03-05T02:59:18.548Z,5.64
2019-03-05T03:00:18.517Z,5.66
2019-03-05T03:01:18.497Z,5.52
2019-03-05T03:02:18.489Z,5.52
2019-03-05T03:03:18.477Z,5.59
2019-03-05T03:04:18.490Z,5.52
2019-03-05T03:05:18.447Z,5.37
2019-03-05T03:06:18.448Z,5.37
2019-03-05T03:07:18.425Z,5.13
2019-03-05T03:08:18.416Z,5.17
2019-03-05T03:09:18.426Z,5.20
2019-03-05T03:10:18.398Z,5.07
2019-03-05T03:11:18.399Z,5.01
2019-03-05T03:12:18.382Z,4.89
2019-03-05T03:13:18.372Z,4.80
2019-03-05T03:14:18.386Z,4.65
2019-03-05T03:15:18.354Z,4.69
2019-03-05T03:16:18.341Z,4.67
2019-03-05T03:17:18.338Z,4.73
2019-03-05T03:18:18.317Z,4.69
2019-03-05T03:19:18.329Z,4.77
2019-03-05T03:20:18.305Z,4.83
2019-03-05T03:21:18.285Z,4.95
2019-03-05T03:22:18.287Z,4.94
2019-03-05T03:23:18.261Z,4.83
2019-03-05T03:24:18.280Z,4.80
2019-03-05T03:25:18.247Z,4.84
2019-03-05T03:26:18.238Z,4.80
2019-03-05T03:27:18.226Z,4.83
2019-03-05T03:28:18.207Z,4.86
2019-03-05T03:29:18.227Z,4.73
2019-03-05T03:30:18.304Z,4.65
2019-03-05T03:31:18.179Z,4.62
2019-03-05T03:32:18.171Z,4.57
2019-03-05T03:33:18.162Z,4.51
2019-03-05T03:34:18.178Z,4.26
2019-03-05T03:35:18.147Z,3.75
2019-03-05T03:36:18.320Z,3.61
2019-03-05T03:37:18.118Z,3.54
2019-03-05T03:38:18.144Z,3.44
2019-03-05T03:39:18.133Z,3.46
2019-03-05T03:40:18.087Z,3.39
2019-03-05T03:41:18.077Z,3.33
2019-03-05T03:42:18.063Z,3.33
2019-03-05T03:43:18.056Z,3.25
2019-03-05T03:44:18.075Z,3.24
2019-03-05T03:45:18.058Z,3.21
2019-03-05T03:46:18.026Z,3.07
2019-03-05T03:47:18.013Z,3.06
2019-03-05T03:48:18.009Z,3.12
2019-03-05T03:49:18.016Z,3.09
2019-03-05T03:50:17.977Z,3.16
2019-03-05T03:51:17.983Z,3.12
2019-03-05T03:52:17.960Z,3.12
2019-03-05T03:53:17.946Z,3.00
2019-03-05T03:54:18.077Z,3.07
2019-03-05T03:55:17.929Z,3.03
2019-03-05T03:56:17.918Z,3.09
2019-03-05T03:57:17.903Z,3.09
2019-03-05T03:58:17.899Z,2.95
2019-03-05T03:59:17.908Z,2.94
2019-03-05T04:00:17.870Z,2.92
2019-03-05T04:01:17.854Z,3.00
2019-03-05T04:02:17.854Z,2.79
2019-03-05T04:03:17.836Z,2.85
2019-03-05T04:04:17.860Z,2.79
2019-03-05T04:05:17.809Z,2.79
2019-03-05T04:06:17.802Z,2.70
2019-03-05T04:07:17.792Z,2.74
2019-03-05T04:08:17.776Z,2.74
2019-03-05T04:09:17.795Z,2.70
2019-03-05T04:10:17.766Z,2.77
2019-03-05T04:11:17.753Z,2.74
2019-03-05T04:12:17.746Z,2.71
2019-03-05T04:13:17.737Z,2.85
2019-03-05T04:14:17.747Z,2.82
2019-03-05T04:15:17.722Z,2.92
2019-03-05T04:16:17.714Z,2.92
2019-03-05T04:17:17.697Z,2.97
2019-03-05T04:18:17.679Z,2.87
2019-03-05T04:19:17.793Z,2.97
2019-03-05T04:20:17.660Z,2.87
2019-03-05T04:21:20.036Z,2.79
2019-03-05T04:22:17.641Z,2.85
2019-03-05T04:23:17.628Z,2.88
2019-03-05T04:24:17.624Z,2.92
2019-03-05T04:25:17.642Z,2.97
2019-03-05T04:26:17.600Z,2.84
2019-03-05T04:27:17.592Z,2.95
2019-03-05T04:28:17.580Z,2.97
2019-03-05T04:29:17.573Z,2.89
2019-03-05T04:30:17.586Z,2.92
2019-03-05T04:31:17.547Z,3.05
2019-03-05T04:32:17.540Z,3.06
2019-03-05T04:33:17.526Z,3.12
2019-03-05T04:34:17.520Z,3.10
2019-03-05T04:35:17.538Z,3.10
2019-03-05T04:36:17.492Z,3.13
2019-03-05T04:37:17.483Z,3.12
2019-03-05T04:38:17.472Z,3.10
2019-03-05T04:39:17.460Z,3.12
2019-03-05T04:40:17.478Z,3.30
2019-03-05T04:41:17.446Z,3.40
2019-03-05T04:42:17.434Z,3.50
2019-03-05T04:43:17.423Z,3.46
2019-03-05T04:44:17.412Z,3.49
2019-03-05T04:45:17.426Z,3.49
2019-03-05T04:46:17.401Z,3.44
2019-03-05T04:47:17.376Z,3.46
2019-03-05T04:48:17.367Z,3.53
2019-03-05T04:49:17.355Z,3.52
2019-03-05T04:50:17.405Z,3.53
2019-03-05T04:51:17.342Z,3.52
2019-03-05T04:52:17.328Z,3.57
2019-03-05T04:53:17.319Z,3.62
2019-03-05T04:54:17.304Z,3.58
2019-03-05T04:55:17.323Z,3.58
2019-03-05T04:56:17.304Z,3.61
2019-03-05T04:57:17.289Z,3.61
2019-03-05T04:58:17.267Z,3.58
2019-03-05T04:59:17.261Z,3.64
2019-03-05T05:00:17.269Z,3.61
2019-03-05T05:01:17.231Z,3.78
2019-03-05T05:02:17.227Z,3.76
2019-03-05T05:03:17.212Z,3.68
2019-03-05T05:04:17.208Z,3.71
2019-03-05T05:05:17.215Z,3.78
2019-03-05T05:06:17.188Z,3.79
2019-03-05T05:07:17.200Z,3.76
2019-03-05T05:08:17.159Z,3.68
2019-03-05T05:09:17.148Z,3.75
2019-03-05T05:10:17.165Z,3.82
2019-03-05T05:11:17.132Z,3.78
2019-03-05T05:12:17.118Z,3.70
2019-03-05T05:13:17.111Z,3.82
2019-03-05T05:14:17.113Z,3.82
2019-03-05T05:15:17.116Z,3.75
2019-03-05T05:16:17.078Z,3.76
2019-03-05T05:17:17.068Z,3.76
2019-03-05T05:18:17.058Z,3.80
2019-03-05T05:19:17.047Z,4.01
2019-03-05T05:20:17.056Z,3.92
2019-03-05T05:21:17.041Z,3.89
2019-03-05T05:22:17.010Z,3.94
2019-03-05T05:23:16.999Z,4.00
2019-03-05T05:24:16.996Z,3.98
2019-03-05T05:25:17.000Z,3.90
2019-03-05T05:26:17.859Z,3.94
2019-03-05T05:27:16.960Z,3.92
2019-03-05T05:28:16.943Z,3.90
2019-03-05T05:29:16.946Z,3.96
2019-03-05T05:30:16.956Z,3.94
2019-03-05T05:31:16.936Z,3.97
2019-03-05T05:32:16.911Z,4.00
2019-03-05T05:33:16.896Z,4.08
2019-03-05T05:34:16.890Z,4.00
2019-03-05T05:35:16.898Z,4.01
2019-03-05T05:36:16.867Z,4.04
2019-03-05T05:37:16.881Z,4.12
2019-03-05T05:38:16.840Z,4.07
2019-03-05T05:39:16.831Z,4.01
2019-03-05T05:40:16.845Z,4.15
2019-03-05T05:41:16.816Z,4.18
2019-03-05T05:42:16.808Z,4.10
2019-03-05T05:43:16.786Z,4.15
2019-03-05T05:44:16.779Z,4.19
2019-03-05T05:45:19.223Z,4.29
2019-03-05T05:46:16.761Z,4.33
2019-03-05T05:47:16.747Z,4.44
2019-03-05T05:48:16.735Z,4.39
2019-03-05T05:49:16.723Z,4.34
2019-03-05T05:50:16.748Z,4.28
2019-03-05T05:51:16.703Z,4.26
2019-03-05T05:52:16.692Z,4.42
2019-03-05T05:53:16.688Z,4.34
2019-03-05T05:54:16.676Z,4.40
2019-03-05T05:55:16.685Z,4.32
2019-03-05T05:56:16.655Z,4.26
2019-03-05T05:57:16.641Z,4.24
2019-03-05T05:58:16.633Z,4.24
2019-03-05T05:59:16.620Z,4.21
2019-03-05T06:00:16.633Z,4.26
2019-03-05T06:01:16.598Z,4.21
2019-03-05T06:02:16.586Z,4.18
2019-03-05T06:03:16.581Z,4.25
2019-03-05T06:04:16.572Z,4.16
2019-03-05T06:05:16.555Z,4.33
2019-03-05T06:06:16.576Z,4.34
2019-03-05T06:07:16.534Z,4.28
2019-03-05T06:08:16.526Z,4.32
2019-03-05T06:09:16.512Z,4.32
2019-03-05T06:10:16.500Z,4.29
2019-03-05T06:11:16.522Z,4.34
2019-03-05T06:12:16.479Z,4.32
2019-03-05T06:13:16.469Z,4.25
2019-03-05T06:14:16.459Z,4.18
2019-03-05T06:15:16.475Z,4.29
2019-03-05T06:16:16.467Z,4.33
2019-03-05T06:17:16.428Z,4.33
2019-03-05T06:18:16.417Z,4.40
2019-03-05T06:19:16.409Z,4.47
2019-03-05T06:20:16.406Z,4.43
2019-03-05T06:21:16.414Z,4.46
2019-03-05T06:22:16.378Z,4.40
2019-03-05T06:23:16.370Z,4.40
2019-03-05T06:24:16.352Z,4.52
2019-03-05T06:25:16.343Z,4.58
2019-03-05T06:26:16.358Z,4.51
2019-03-05T06:27:16.320Z,4.62
2019-03-05T06:28:16.347Z,4.62
2019-03-05T06:29:16.314Z,4.58
2019-03-05T06:30:16.287Z,4.44
2019-03-05T06:31:16.303Z,4.42
2019-03-05T06:32:17.454Z,4.62
2019-03-05T06:33:16.267Z,4.58
2019-03-05T06:34:16.253Z,4.57
2019-03-05T06:35:16.239Z,4.61
2019-03-05T06:36:16.256Z,4.58
2019-03-05T06:37:16.222Z,4.62
2019-03-05T06:38:16.210Z,4.67
2019-03-05T06:39:16.205Z,4.59
2019-03-05T06:40:16.183Z,4.67
2019-03-05T06:41:16.201Z,4.65
2019-03-05T06:42:16.163Z,4.65
2019-03-05T06:43:16.154Z,4.72
2019-03-05T06:44:16.141Z,4.83
2019-03-05T06:45:16.131Z,4.69
2019-03-05T06:46:16.148Z,4.77
2019-03-05T06:47:16.111Z,4.77
2019-03-05T06:48:16.096Z,4.80
2019-03-05T06:49:16.088Z,4.76
2019-03-05T06:50:16.075Z,4.76
2019-03-05T06:51:16.119Z,4.86
2019-03-05T06:52:16.056Z,4.79
2019-03-05T06:53:16.045Z,4.83
2019-03-05T06:54:16.035Z,4.79
2019-03-05T06:55:16.023Z,4.79
2019-03-05T06:56:16.037Z,4.77
2019-03-05T06:57:15.999Z,4.77
2019-03-05T06:58:16.009Z,4.80
2019-03-05T06:59:15.983Z,4.72
2019-03-05T07:00:15.973Z,4.75
2019-03-05T07:01:15.990Z,4.75
2019-03-05T07:02:15.951Z,4.83
2019-03-05T07:03:15.941Z,4.88
2019-03-05T07:04:15.925Z,4.95
2019-03-05T07:05:15.915Z,4.89
2019-03-05T07:06:15.939Z,4.96
2019-03-05T07:07:15.892Z,4.98
2019-03-05T07:08:15.884Z,4.91
2019-03-05T07:09:15.919Z,4.94
2019-03-05T07:10:15.863Z,4.98
2019-03-05T07:11:15.855Z,5.02
2019-03-05T07:12:15.843Z,4.99
2019-03-05T07:13:15.833Z,4.98
2019-03-05T07:14:15.819Z,4.99
2019-03-05T07:15:15.839Z,4.99
2019-03-05T07:16:15.828Z,4.95
2019-03-05T07:17:15.786Z,4.92
2019-03-05T07:18:15.816Z,4.95
2019-03-05T07:19:15.767Z,4.99
2019-03-05T07:20:15.755Z,4.99
2019-03-05T07:21:15.773Z,5.01
2019-03-05T07:22:15.739Z,5.10
2019-03-05T07:23:15.722Z,5.05
2019-03-05T07:24:15.714Z,5.07
2019-03-05T07:25:15.703Z,5.10
2019-03-05T07:26:15.722Z,5.13
2019-03-05T07:27:15.703Z,5.13
2019-03-05T07:28:15.678Z,5.05
2019-03-05T07:29:18.021Z,5.23
2019-03-05T07:30:15.652Z,5.25
2019-03-05T07:31:15.670Z,5.28
2019-03-05T07:32:15.628Z,5.22
2019-03-05T07:33:15.622Z,5.20
2019-03-05T07:34:15.613Z,5.25
2019-03-05T07:35:15.603Z,5.20
2019-03-05T07:36:15.611Z,5.28
2019-03-05T07:37:15.596Z,5.25
2019-03-05T07:38:15.566Z,5.34
2019-03-05T07:39:15.553Z,5.41
2019-03-05T07:40:15.548Z,5.40
2019-03-05T07:41:15.559Z,5.37
2019-03-05T07:42:15.526Z,5.43
2019-03-05T07:43:15.511Z,5.45
2019-03-05T07:44:15.515Z,5.57
2019-03-05T07:45:15.498Z,5.64
2019-03-05T07:46:15.610Z,5.53
2019-03-05T07:47:15.469Z,5.78
2019-03-05T07:48:15.475Z,5.73
2019-03-05T07:49:15.452Z,5.91
2019-03-05T07:50:15.436Z,5.92
2019-03-05T07:51:15.426Z,5.89
2019-03-05T07:52:15.450Z,5.93
2019-03-05T07:53:15.408Z,5.95
2019-03-05T07:54:15.395Z,5.96
2019-03-05T07:55:15.391Z,5.92
2019-03-05T07:56:15.375Z,5.77
2019-03-05T07:57:15.390Z,5.71
2019-03-05T07:58:15.354Z,5.63
2019-03-05T07:59:15.344Z,5.59
2019-03-05T08:00:15.336Z,5.49
2019-03-05T08:01:22.229Z,5.53
2019-03-05T08:02:16.345Z,5.46
2019-03-05T08:03:15.303Z,5.49
2019-03-05T08:04:15.292Z,5.60
2019-03-05T08:05:15.288Z,5.57
2019-03-05T08:06:15.268Z,5.48
2019-03-05T08:07:15.281Z,5.43
2019-03-05T08:08:26.194Z,5.30
2019-03-05T08:09:16.238Z,5.27
2019-03-05T08:10:15.232Z,5.14
2019-03-05T08:11:15.219Z,5.16
2019-03-05T08:12:15.233Z,5.04
2019-03-05T08:13:15.197Z,4.95
2019-03-05T08:14:15.192Z,4.92
2019-03-05T08:15:15.173Z,4.91
2019-03-05T08:16:15.168Z,4.95
2019-03-05T08:17:15.177Z,5.10
2019-03-05T08:18:15.144Z,5.20
2019-03-05T08:19:15.131Z,5.19
2019-03-05T08:20:15.123Z,5.46
2019-03-05T08:21:15.118Z,5.53
2019-03-05T08:22:15.127Z,5.66
2019-03-05T08:23:15.111Z,5.66
2019-03-05T08:24:15.083Z,5.49
2019-03-05T08:25:15.067Z,5.37
2019-03-05T08:26:15.055Z,5.22
2019-03-05T08:27:15.071Z,5.14
2019-03-05T08:28:15.040Z,5.19
2019-03-05T08:29:15.025Z,5.27
2019-03-05T08:30:15.141Z,5.70
2019-03-05T08:31:15.004Z,5.92
2019-03-05T08:32:15.023Z,6.04
2019-03-05T08:33:14.984Z,6.21
2019-03-05T08:34:14.979Z,6.30
2019-03-05T08:35:14.965Z,6.41
2019-03-05T08:36:14.958Z,6.35
2019-03-05T08:37:14.970Z,6.38
2019-03-05T08:38:14.935Z,6.32
2019-03-05T08:39:14.925Z,6.32
2019-03-05T08:40:14.919Z,6.29
2019-03-05T08:41:14.910Z,6.33
2019-03-05T08:42:14.930Z,6.14
2019-03-05T08:43:14.885Z,6.01
2019-03-05T08:44:14.869Z,5.96
2019-03-05T08:45:14.861Z,5.92
2019-03-05T08:46:14.851Z,5.92
2019-03-05T08:47:14.877Z,5.93
2019-03-05T08:48:14.823Z,5.86
2019-03-05T08:49:14.816Z,5.70
2019-03-05T08:50:14.805Z,5.68
2019-03-05T08:51:14.791Z,5.63
2019-03-05T08:52:14.808Z,5.71
2019-03-05T08:53:14.776Z,5.60
2019-03-05T08:54:14.760Z,5.57
2019-03-05T08:55:14.757Z,5.67
2019-03-05T08:56:14.740Z,5.64
2019-03-05T08:57:14.757Z,5.41
2019-03-05T08:58:14.724Z,5.35
2019-03-05T08:59:14.706Z,5.30
2019-03-05T09:00:14.701Z,5.30
2019-03-05T09:01:14.684Z,5.37
2019-03-05T09:02:14.699Z,5.30
2019-03-05T09:03:14.669Z,5.45
2019-03-05T09:04:14.651Z,5.55
2019-03-05T09:05:14.645Z,5.56
2019-03-05T09:06:14.635Z,5.73
2019-03-05T09:07:14.664Z,5.83
2019-03-05T09:08:14.616Z,5.88
2019-03-05T09:09:14.602Z,5.85
2019-03-05T09:10:14.599Z,5.86
2019-03-05T09:11:14.579Z,5.92
2019-03-05T09:12:14.624Z,5.93
2019-03-05T09:13:14.559Z,5.86
2019-03-05T09:14:14.556Z,5.74
2019-03-05T09:15:14.584Z,5.50
2019-03-05T09:16:14.527Z,5.40
2019-03-05T09:17:14.541Z,5.38
2019-03-05T09:18:14.506Z,5.43
2019-03-05T09:19:14.500Z,5.32
2019-03-05T09:20:14.483Z,5.23
2019-03-05T09:21:14.471Z,5.17
2019-03-05T09:22:14.501Z,5.27
2019-03-05T09:23:14.454Z,5.38
2019-03-05T09:24:14.445Z,5.38
2019-03-05T09:25:14.432Z,5.37
2019-03-05T09:26:14.425Z,5.30
2019-03-05T09:27:14.454Z,5.34
2019-03-05T09:28:14.402Z,5.30
2019-03-05T09:29:14.398Z,5.20
2019-03-05T09:30:14.375Z,5.20
2019-03-05T09:31:14.365Z,5.28
2019-03-05T09:32:14.359Z,5.35
2019-03-05T09:33:14.384Z,5.20
2019-03-05T09:34:14.342Z,5.31
2019-03-05T09:35:14.329Z,5.23
2019-03-05T09:36:14.312Z,5.30
2019-03-05T09:37:14.306Z,5.16
2019-03-05T09:38:14.326Z,5.19
2019-03-05T09:39:14.285Z,5.14
2019-03-05T09:40:14.273Z,5.27
2019-03-05T09:41:14.264Z,5.20
2019-03-05T09:42:14.250Z,5.22
2019-03-05T09:43:14.264Z,5.13
2019-03-05T09:44:14.241Z,5.19
2019-03-05T09:45:14.220Z,5.23
2019-03-05T09:46:14.212Z,5.25
2019-03-05T09:47:14.205Z,5.32
2019-03-05T09:48:14.214Z,5.31
2019-03-05T09:49:14.183Z,5.27
2019-03-05T09:50:14.163Z,5.17
2019-03-05T09:51:14.166Z,5.22
2019-03-05T09:52:14.143Z,5.13
2019-03-05T09:53:14.159Z,5.07
2019-03-05T09:54:14.128Z,5.10
2019-03-05T09:55:14.113Z,5.10
2019-03-05T09:56:14.104Z,5.02
2019-03-05T09:57:14.105Z,4.99
2019-03-05T09:58:14.103Z,5.14
2019-03-05T09:59:14.091Z,5.19
2019-03-05T10:00:14.059Z,5.14
2019-03-05T10:01:14.050Z,5.30
2019-03-05T10:02:14.044Z,5.43
2019-03-05T10:03:14.053Z,5.52
2019-03-05T10:04:14.015Z,5.38
2019-03-05T10:05:14.008Z,5.28
2019-03-05T10:06:14.000Z,5.35
2019-03-05T10:07:19.026Z,5.59
2019-03-05T10:08:15.003Z,5.71
2019-03-05T10:09:13.963Z,6.65
2019-03-05T10:10:13.953Z,7.50
2019-03-05T10:11:13.943Z,7.55
2019-03-05T10:12:13.934Z,7.53
2019-03-05T10:13:13.947Z,7.49
2019-03-05T10:14:13.914Z,7.23
2019-03-05T10:15:13.899Z,7.12
2019-03-05T10:16:13.950Z,6.98
2019-03-05T10:17:13.923Z,7.02
2019-03-05T10:18:14.052Z,6.66
2019-03-05T10:19:13.865Z,6.68
2019-03-05T10:20:13.920Z,6.73
2019-03-05T10:21:13.839Z,6.58
2019-03-05T10:22:13.836Z,6.56
2019-03-05T10:23:13.844Z,6.51
2019-03-05T10:24:13.820Z,6.94
2019-03-05T10:25:13.806Z,7.29
2019-03-05T10:26:13.790Z,7.63
2019-03-05T10:27:13.783Z,7.75
2019-03-05T10:28:13.800Z,7.58
2019-03-05T10:29:13.752Z,7.55
2019-03-05T10:30:24.168Z,7.66
2019-03-05T10:31:14.731Z,7.47
2019-03-05T10:32:13.736Z,7.53
2019-03-05T10:33:13.738Z,7.72
2019-03-05T10:34:13.700Z,8.10
2019-03-05T10:35:13.687Z,8.26
2019-03-05T10:36:13.681Z,8.10
2019-03-05T10:37:18.799Z,8.33
2019-03-05T10:38:14.683Z,8.30
2019-03-05T10:39:13.645Z,7.92
2019-03-05T10:40:13.636Z,7.99
2019-03-05T10:41:13.632Z,8.10
2019-03-05T10:42:13.616Z,8.10
2019-03-05T10:43:13.629Z,8.37
2019-03-05T10:44:13.593Z,8.76
2019-03-05T10:45:13.581Z,8.68
2019-03-05T10:46:13.576Z,8.72
2019-03-05T10:47:13.559Z,8.81
2019-03-05T10:48:13.571Z,9.78
2019-03-05T10:49:13.543Z,9.48
2019-03-05T10:50:15.667Z,9.91
2019-03-05T10:51:13.517Z,11.71
2019-03-05T10:52:13.508Z,11.14
2019-03-05T10:53:13.520Z,10.51
2019-03-05T10:54:13.484Z,10.63
2019-03-05T10:55:13.475Z,10.86
2019-03-05T10:56:13.463Z,10.73
2019-03-05T10:57:13.453Z,10.17
2019-03-05T10:58:13.470Z,10.78
2019-03-05T10:59:13.434Z,11.78
2019-03-05T11:00:13.426Z,11.62
2019-03-05T11:01:13.411Z,12.06
2019-03-05T11:02:13.403Z,12.46
2019-03-05T11:03:13.416Z,12.05
2019-03-05T11:04:13.408Z,12.42
2019-03-05T11:05:13.372Z,12.89
2019-03-05T11:06:13.364Z,12.87
2019-03-05T11:07:13.345Z,13.43
2019-03-05T11:08:13.386Z,13.76
2019-03-05T11:09:13.330Z,14.74
2019-03-05T11:10:13.317Z,14.90
2019-03-05T11:11:14.112Z,13.20
2019-03-05T11:12:13.300Z,11.56
2019-03-05T11:13:13.281Z,11.72
2019-03-05T11:14:13.298Z,12.23
2019-03-05T11:15:13.262Z,12.93
2019-03-05T11:16:13.253Z,12.48
2019-03-05T11:17:13.240Z,11.68
2019-03-05T11:18:13.232Z,10.92
2019-03-05T11:19:13.243Z,10.09
2019-03-05T11:20:13.214Z,9.16
2019-03-05T11:21:13.202Z,8.84
2019-03-05T11:22:13.186Z,8.71
2019-03-05T11:23:13.179Z,8.40
2019-03-05T11:24:13.201Z,8.26
2019-03-05T11:25:13.155Z,8.04
2019-03-05T11:26:13.143Z,8.22
2019-03-05T11:27:13.132Z,8.40
2019-03-05T11:28:13.135Z,8.28
2019-03-05T11:29:13.140Z,8.04
2019-03-05T11:30:13.102Z,8.02
2019-03-05T11:31:13.092Z,8.00
2019-03-05T11:32:13.082Z,7.96
2019-03-05T11:33:13.078Z,7.79
2019-03-05T11:34:13.355Z,7.53
2019-03-05T11:35:13.053Z,7.50
2019-03-05T11:36:13.054Z,7.66
2019-03-05T11:37:13.025Z,7.72
2019-03-05T11:38:13.026Z,7.45
2019-03-05T11:39:13.183Z,7.49
2019-03-05T11:40:20.790Z,7.59
2019-03-05T11:41:13.983Z,7.63
2019-03-05T11:42:12.971Z,7.67
2019-03-05T11:43:13.017Z,7.63
2019-03-05T11:44:12.991Z,7.62
2019-03-05T11:45:12.951Z,7.45
2019-03-05T11:46:12.936Z,7.49
2019-03-05T11:47:12.922Z,7.55
2019-03-05T11:48:12.908Z,7.63
2019-03-05T11:49:12.926Z,7.69
2019-03-05T11:50:12.887Z,7.60
2019-03-05T11:51:12.878Z,7.59
2019-03-05T11:52:12.866Z,7.74
2019-03-05T11:53:12.871Z,7.75
2019-03-05T11:54:12.866Z,7.72
2019-03-05T11:55:12.832Z,7.74
2019-03-05T11:56:12.824Z,7.89
2019-03-05T11:57:12.816Z,7.94
2019-03-05T11:58:12.801Z,8.04
2019-03-05T11:59:12.816Z,8.15
2019-03-05T12:00:12.776Z,8.15
2019-03-05T12:01:12.773Z,8.08
2019-03-05T12:02:21.532Z,8.26
2019-03-05T12:03:13.748Z,8.39
2019-03-05T12:04:12.757Z,9.82
2019-03-05T12:05:12.743Z,10.22
2019-03-05T12:06:12.708Z,11.06
2019-03-05T12:07:12.705Z,12.30
2019-03-05T12:08:12.691Z,12.79
2019-03-05T12:09:12.704Z,13.00
2019-03-05T12:10:12.672Z,12.89
2019-03-05T12:11:12.661Z,13.40
2019-03-05T12:12:12.647Z,13.76
2019-03-05T12:13:14.536Z,12.74
2019-03-05T12:14:12.654Z,12.37
2019-03-05T12:15:12.636Z,12.21
2019-03-05T12:16:12.604Z,13.56
2019-03-05T12:17:12.592Z,13.91
2019-03-05T12:18:12.590Z,13.06
2019-03-05T12:19:12.601Z,12.19
2019-03-05T12:20:12.570Z,11.74
2019-03-05T12:21:12.570Z,11.19
2019-03-05T12:22:12.541Z,10.71
2019-03-05T12:23:12.532Z,10.59
2019-03-05T12:24:12.548Z,11.17
2019-03-05T12:25:12.514Z,10.73
2019-03-05T12:26:12.504Z,10.43
2019-03-05T12:27:12.489Z,10.52
2019-03-05T12:28:12.480Z,10.46
2019-03-05T12:29:12.497Z,10.25
2019-03-05T12:30:12.466Z,9.97
2019-03-05T12:31:12.452Z,10.10
2019-03-05T12:32:12.444Z,10.43
2019-03-05T12:33:12.428Z,11.19
2019-03-05T12:34:12.454Z,11.10
2019-03-05T12:35:12.414Z,10.65
2019-03-05T12:36:12.403Z,10.40
2019-03-05T12:37:12.385Z,10.12
2019-03-05T12:38:12.382Z,10.01
2019-03-05T12:39:12.388Z,9.86
2019-03-05T12:40:12.358Z,9.82
2019-03-05T12:41:12.344Z,9.46
2019-03-05T12:42:12.338Z,9.48
2019-03-05T12:43:12.327Z,9.39
2019-03-05T12:44:12.336Z,9.27
2019-03-05T12:45:12.308Z,9.23
2019-03-05T12:46:12.295Z,9.05
2019-03-05T12:47:12.283Z,9.04
2019-03-05T12:48:12.270Z,9.16
2019-03-05T12:49:12.298Z,9.13
2019-03-05T12:50:12.250Z,8.97
2019-03-05T12:51:12.239Z,9.13
2019-03-05T12:52:12.225Z,9.23
2019-03-05T12:53:12.221Z,9.28
2019-03-05T12:54:12.204Z,9.79
2019-03-05T12:55:12.233Z,9.88
2019-03-05T12:56:23.089Z,10.17
2019-03-05T12:57:13.173Z,9.78
2019-03-05T12:58:12.166Z,9.88
2019-03-05T12:59:12.152Z,9.73
2019-03-05T13:00:12.170Z,9.53
2019-03-05T13:01:12.130Z,9.16
2019-03-05T13:02:12.117Z,9.24
2019-03-05T13:03:12.113Z,9.28
2019-03-05T13:04:12.098Z,9.67
2019-03-05T13:05:12.113Z,10.55
2019-03-05T13:06:12.076Z,11.89
2019-03-05T13:07:14.251Z,12.95
2019-03-05T13:08:13.052Z,12.42
2019-03-05T13:09:13.674Z,11.75
2019-03-05T13:10:13.063Z,11.41
2019-03-05T13:11:13.153Z,11.06
2019-03-05T13:12:12.015Z,11.14
2019-03-05T13:13:13.919Z,11.16
2019-03-05T13:14:12.426Z,10.99
2019-03-05T13:15:12.024Z,11.01